< < Back
Terminal Aerodrome Forecast


Current Version              Previous Versions:   1  2  3  4  5  6  7  8  9  

Terminal Aerodrome Forecast

486
FTUS42 KGSP 302204 AAA
TAFAND
TAF AMD
KAND 302204Z 3022/3118 08011KT P6SM -SHRA SCT050 OVC120
      TEMPO 3022/3024 VRB11KT 5SM TSRA BR BKN050CB
     FM310200 06004KT P6SM BKN035
     FM310400 06004KT P6SM BKN014
     FM310600 06004KT 5SM BR BKN007
     FM310800 06004KT 3SM BR BKN005
     FM311400 06005KT P6SM BKN015
     FM311700 07005KT P6SM BKN020=



Latest METAR

764
SAUS70 KWBC 310500 RRW
MTRAND
METAR KAND 310556Z AUTO 00000KT 10SM SCT041 18/17 A3012 RMK AO2 SLP192
60001 T01830172 10194 20183 58006


USA.gov is the U.S. government's official web portal to all federal, state and local government web resources and services.